CDT,Max TemperatureF,Mean TemperatureF,Min TemperatureF,Max Dew PointF,MeanDew PointF,Min DewpointF,Max Humidity, Mean Humidity, Min Humidity, Max Sea Level PressureIn, Mean Sea Level PressureIn, Min Sea Level PressureIn, Max VisibilityMiles, Mean VisibilityMiles, Min VisibilityMiles, Max Wind SpeedMPH, Mean Wind SpeedMPH, Max Gust SpeedMPH,PrecipitationIn, CloudCover, Events, WindDirDegrees
2012-10-1,69,51,33,48,41,34,100,73,31,29.93,29.88,29.82,10,9,0,18,3,24,0.00,1,Fog,301
2012-10-2,62,47,32,48,36,23,100,74,22,29.99,29.94,29.90,10,7,0,7,2,,0.00,2,Fog,98
2012-10-3,69,50,32,54,41,32,100,75,31,29.99,29.96,29.93,10,7,0,7,1,,0.00,2,Fog-Snow,211
2012-10-4,62,50,37,46,37,27,100,69,38,29.97,29.87,29.79,10,10,2,24,6,37,0.00,2,,233
2012-10-5,39,36,32,32,26,23,100,67,56,29.92,29.91,29.89,10,10,2,24,16,34,0.00,8,Snow,265
2012-10-6,39,36,32,34,28,21,100,81,56,30.14,30.06,29.91,10,9,2,18,9,25,0.00,8,Snow,316
2012-10-7,46,34,23,30,21,14,100,60,27,30.12,30.03,29.93,10,10,10,18,6,25,0.00,2,,242
2012-10-8,51,40,30,41,26,18,81,53,40,29.92,29.78,29.64,10,10,10,16,6,24,0.01,4,Rain,199
2012-10-9,46,40,35,45,37,30,100,92,76,29.76,29.70,29.66,10,9,5,16,6,24,0.25,6,Rain,243
2012-10-10,41,34,28,30,23,14,87,68,36,29.98,29.90,29.76,10,10,10,18,10,28,0.00,7,,290
2012-10-11,41,34,26,34,30,21,100,86,52,30.28,30.01,29.82,10,9,1,18,7,25,0.01,6,Rain-Snow,320
2012-10-12,44,32,21,32,23,16,100,73,31,30.41,30.33,30.21,10,9,0,15,3,17,0.00,1,Fog,217
2012-10-13,42,37,32,43,38,21,100,96,64,30.12,29.86,29.72,10,4,2,9,4,,0.07,8,Rain,176
2012-10-14,44,40,37,43,41,37,100,99,93,29.79,29.69,29.60,10,6,1,17,7,25,0.01,8,Rain,15
2012-10-15,50,41,32,37,33,30,100,81,50,29.90,29.85,29.74,10,10,10,18,9,23,0.00,5,,347
2012-10-16,59,49,39,43,40,32,100,76,51,29.84,29.64,29.48,10,10,10,10,4,17,0.03,6,Rain,162
2012-10-17,68,55,42,54,47,43,100,86,43,29.47,29.34,29.23,10,7,2,14,4,21,0.16,5,Rain,155
2012-10-18,50,46,41,50,45,41,100,99,93,29.42,29.23,29.10,10,7,2,12,5,,0.61,8,Rain,208
2012-10-19,46,42,39,43,40,37,100,91,71,29.65,29.56,29.44,10,10,7,12,6,,0.03,8,Rain,41
2012-10-20,51,40,30,43,39,30,100,88,58,29.84,29.75,29.64,10,8,0,9,5,,0.00,6,Fog-Rain,352
2012-10-21,59,44,28,43,35,28,100,80,48,29.97,29.92,29.85,10,7,0,9,1,,0.00,3,Fog,170
2012-10-22,62,50,37,43,41,37,100,72,45,30.04,29.99,29.95,10,10,2,13,4,,0.00,3,,54
2012-10-23,55,50,44,55,49,41,100,95,81,30.00,29.90,29.84,10,4,1,13,7,18,0.00,8,Rain,127
2012-10-24,64,60,55,64,59,55,100,99,94,29.88,29.82,29.69,10,2,0,12,5,21,0.18,8,Fog-Rain,158
2012-10-25,60,46,32,61,45,30,100,98,87,29.93,29.66,29.48,10,8,0,20,7,30,1.35,8,Fog-Rain-Snow,316
2012-10-26,35,34,32,30,25,19,93,73,56,30.27,30.15,29.94,10,10,10,15,11,23,0.00,7,,270
2012-10-27,37,30,23,23,18,12,100,62,38,30.32,30.27,30.24,10,10,10,13,4,21,0.00,4,,271
2012-10-28,41,30,19,28,20,14,100,74,33,30.35,30.32,30.29,10,10,10,8,1,,0.00,0,,208
2012-10-29,44,30,17,30,22,18,100,75,39,30.35,30.31,30.22,10,10,10,9,2,,0.00,0,,30
2012-10-30,37,34,30,27,22,18,86,67,45,30.21,30.06,29.92,10,10,10,21,12,31,0.00,1,,9
2012-10-31,37,30,23,30,23,14,93,74,56,29.91,29.86,29.81,10,9,2,20,11,24,0.00,4,Snow,340